This is the latest recevied weather packets stored in our database for station/object OH2HCY-3. If no packets are shown the sender has not sent any weather packets the latest 10 day(s).
| Time | Temp. | Humidity | Pressure | Rain* | Wind** | Luminosity | Snow |
|---|---|---|---|---|---|---|---|
| 1787925228 | 20.56° C | 47% | 1023.8 hPa | - | - | - | - |
| 1787924271 | 20.56° C | 47% | 1023.9 hPa | - | - | - | - |
| 1787923205 | 20° C | 50% | 1024.1 hPa | - | - | - | - |
| 1787923200 | 20° C | 50% | 1024.1 hPa | - | - | - | - |
| 1787922014 | 20° C | 51% | 1024.4 hPa | - | - | - | - |
| 1787922012 | 20° C | 51% | 1024.4 hPa | - | - | - | - |
| 1787920934 | 20° C | 52% | 1024.5 hPa | - | - | - | - |
| 1787919835 | 20° C | 58% | 1024.6 hPa | - | - | - | - |
| 1787918763 | 19.44° C | 65% | 1024.8 hPa | - | - | - | - |
| 1787917727 | 19.44° C | 66% | 1024.8 hPa | - | - | - | - |
| 1787916616 | 19.44° C | 67% | 1025 hPa | - | - | - | - |
| 1787915547 | 19.44° C | 66% | 1024.8 hPa | - | - | - | - |
| 1787914590 | 19.44° C | 68% | 1025 hPa | - | - | - | - |
| 1787913591 | 18.89° C | 72% | 1025.3 hPa | - | - | - | - |
| 1787912533 | 18.89° C | 75% | 1025.4 hPa | - | - | - | - |
| 1787911407 | 18.89° C | 75% | 1025.4 hPa | - | - | - | - |
| 1787910242 | 18.89° C | 75% | 1025.4 hPa | - | - | - | - |
| 1787909092 | 18.89° C | 75% | 1025.5 hPa | - | - | - | - |
| 1787908062 | 18.33° C | 77% | 1025.6 hPa | - | - | - | - |
| 1787906894 | 18.33° C | 77% | 1025.6 hPa | - | - | - | - |
| 1787905772 | 18.33° C | 79% | 1025.7 hPa | - | - | - | - |
| 1787904594 | 18.33° C | 78% | 1025.6 hPa | - | - | - | - |
| 1787903452 | 18.33° C | 80% | 1025.6 hPa | - | - | - | - |
| 1787902367 | 17.78° C | 81% | 1025.5 hPa | - | - | - | - |
| 1787901239 | 17.22° C | 84% | 1025.4 hPa | - | - | - | - |
* Rain since midnight (hover to see other rain measurements)
** Current wind speed in m/s (hover to see current wind gust speed)